Aviation Digital Data Service (ADDS)

Output produced by METARs form (2223 UTC 18 December 2014)
found at http://aviationweather.gov/adds/metars/
 
KMPV 181722Z 1818/1918 32011G20KT P6SM VCSH BKN025 OVC040 
     TEMPO 1818/1822 3SM -SHSN BR OVC015 
     FM190600 32006KT 5SM BR VCSH SCT012 BKN028 OVC030 
     FM191300 33010KT P6SM BKN035